createdAt,value
2022-11-20T00:01:49.639Z,9.02
2022-11-20T00:05:13.037Z,6.20
2022-11-20T00:08:35.390Z,5.50
2022-11-20T00:11:57.154Z,6.25
2022-11-20T00:15:19.284Z,8.02
2022-11-20T00:18:40.869Z,7.28
2022-11-20T00:22:03.976Z,9.35
2022-11-20T00:25:25.455Z,8.57
2022-11-20T00:28:53.620Z,9.27
2022-11-20T00:32:15.549Z,11.88
2022-11-20T00:35:37.722Z,6.18
2022-11-20T00:39:02.032Z,8.40
2022-11-20T00:42:24.120Z,6.22
2022-11-20T00:45:46.226Z,9.43
2022-11-20T00:49:08.327Z,7.55
2022-11-20T00:52:30.011Z,7.78
2022-11-20T00:55:57.655Z,8.77
2022-11-20T00:59:20.074Z,7.57
2022-11-20T01:02:42.352Z,7.85
2022-11-20T01:06:05.241Z,8.98
2022-11-20T01:09:26.976Z,6.75
2022-11-20T01:13:10.566Z,8.20
2022-11-20T01:16:34.154Z,6.75
2022-11-20T01:19:55.925Z,11.80
2022-11-20T01:23:18.024Z,11.68
2022-11-20T01:26:41.939Z,8.52
2022-11-20T01:30:06.053Z,8.98
2022-11-20T01:33:28.365Z,9.38
2022-11-20T01:36:51.110Z,9.18
2022-11-20T01:40:14.112Z,10.00
2022-11-20T01:43:36.009Z,6.53
2022-11-20T01:47:01.540Z,7.40
2022-11-20T01:50:26.830Z,6.20
2022-11-20T01:53:49.299Z,9.52
2022-11-20T01:57:14.337Z,6.35
2022-11-20T02:00:36.385Z,8.23
2022-11-20T02:04:01.324Z,10.75
2022-11-20T02:07:25.348Z,7.90
2022-11-20T02:10:47.455Z,9.02
2022-11-20T02:14:10.125Z,11.10
2022-11-20T02:17:32.120Z,14.77
2022-11-20T02:21:04.351Z,12.75
2022-11-20T02:24:27.645Z,15.13
2022-11-20T02:27:50.251Z,15.30
2022-11-20T02:31:12.287Z,14.02
2022-11-20T02:34:34.482Z,15.20
2022-11-20T02:37:58.977Z,15.35
2022-11-20T02:41:22.246Z,14.20
2022-11-20T02:44:44.488Z,12.32
2022-11-20T02:48:08.546Z,13.70
2022-11-20T02:51:30.855Z,15.88
2022-11-20T02:54:52.863Z,13.07
2022-11-20T02:58:16.296Z,10.60
2022-11-20T03:01:38.320Z,15.38
2022-11-20T03:05:02.626Z,12.93
2022-11-20T03:08:24.403Z,16.60
2022-11-20T03:11:46.529Z,16.23
2022-11-20T03:15:11.616Z,14.32
2022-11-20T03:18:33.665Z,17.38
2022-11-20T03:21:55.130Z,15.15
2022-11-20T03:25:17.510Z,14.85
2022-11-20T03:28:39.488Z,16.77
2022-11-20T03:32:02.597Z,17.60
2022-11-20T03:35:24.393Z,17.33
2022-11-20T03:38:46.928Z,15.77
2022-11-20T03:42:28.953Z,12.18
2022-11-20T03:45:50.972Z,11.18
2022-11-20T03:49:13.876Z,11.65
2022-11-20T03:52:35.686Z,18.80
2022-11-20T03:55:57.681Z,16.67
2022-11-20T03:59:19.753Z,14.73
2022-11-20T04:02:41.723Z,17.02
2022-11-20T04:06:07.184Z,13.45
2022-11-20T04:09:29.186Z,18.65
2022-11-20T04:12:50.883Z,15.48
2022-11-20T04:16:12.815Z,18.58
2022-11-20T04:19:34.349Z,22.23
2022-11-20T04:22:57.968Z,19.17
2022-11-20T04:26:19.803Z,15.75
2022-11-20T04:29:41.415Z,14.55
2022-11-20T04:33:03.302Z,16.45
2022-11-20T04:36:27.111Z,14.00
2022-11-20T04:39:50.657Z,10.98
2022-11-20T04:43:12.568Z,10.35
2022-11-20T04:46:37.171Z,19.40
2022-11-20T04:49:59.257Z,15.10
2022-11-20T04:53:21.791Z,17.70
2022-11-20T04:56:44.915Z,15.48
2022-11-20T05:00:08.149Z,9.98
2022-11-20T05:03:29.852Z,10.00
2022-11-20T05:06:52.247Z,13.57
2022-11-20T05:10:14.150Z,14.32
2022-11-20T05:13:37.895Z,15.70
2022-11-20T05:16:59.555Z,13.88
2022-11-20T05:20:21.928Z,12.77
2022-11-20T05:23:44.109Z,13.15
2022-11-20T05:27:05.851Z,11.48
2022-11-20T05:30:29.370Z,12.80
2022-11-20T05:33:50.930Z,11.80
2022-11-20T05:37:12.553Z,8.88
2022-11-20T05:40:34.718Z,10.88
2022-11-20T05:43:58.946Z,15.75
2022-11-20T05:47:22.706Z,13.13
2022-11-20T05:50:44.432Z,11.63
2022-11-20T05:54:06.591Z,11.05
2022-11-20T05:57:28.656Z,10.18
2022-11-20T06:00:50.713Z,8.52
2022-11-20T06:04:14.090Z,8.52
2022-11-20T06:07:36.062Z,8.38
2022-11-20T06:10:58.105Z,12.13
2022-11-20T06:14:20.065Z,11.38
2022-11-20T06:17:41.666Z,12.73
2022-11-20T06:21:07.265Z,7.47
2022-11-20T06:24:28.676Z,7.38
2022-11-20T06:27:50.684Z,9.65
2022-11-20T06:31:14.550Z,11.07
2022-11-20T06:34:36.189Z,7.45
2022-11-20T06:37:59.565Z,8.43
2022-11-20T06:41:23.242Z,8.50
2022-11-20T06:44:44.798Z,7.85
2022-11-20T06:48:06.741Z,10.38
2022-11-20T06:51:28.558Z,7.90
2022-11-20T06:54:51.969Z,8.07
2022-11-20T06:58:13.732Z,8.02
2022-11-20T07:01:36.458Z,9.38
2022-11-20T07:04:58.179Z,10.07
2022-11-20T07:08:20.274Z,8.77
2022-11-20T07:11:43.728Z,8.77
2022-11-20T07:15:06.663Z,11.05
2022-11-20T07:18:28.564Z,11.30
2022-11-20T07:21:50.754Z,13.30
2022-11-20T07:25:12.973Z,12.00
2022-11-20T07:28:36.762Z,8.50
2022-11-20T07:31:58.752Z,7.53
2022-11-20T07:35:21.253Z,9.02
2022-11-20T07:38:43.099Z,14.23
2022-11-20T07:42:05.247Z,8.90
2022-11-20T07:45:28.420Z,12.77
2022-11-20T07:48:50.242Z,14.80
2022-11-20T07:52:12.548Z,14.10
2022-11-20T07:55:35.550Z,10.18
2022-11-20T07:58:57.067Z,9.10
2022-11-20T08:02:20.351Z,9.18
2022-11-20T08:05:42.478Z,19.52
2022-11-20T08:09:04.445Z,6.63
2022-11-20T08:12:44.123Z,8.02
2022-11-20T08:16:06.863Z,5.47
2022-11-20T08:19:30.690Z,8.95
2022-11-20T08:22:54.319Z,7.30
2022-11-20T08:26:16.354Z,5.32
2022-11-20T08:29:38.343Z,10.70
2022-11-20T08:33:04.461Z,4.50
2022-11-20T08:36:30.440Z,10.95
2022-11-20T08:39:53.794Z,32.28
2022-11-20T08:43:15.394Z,12.30
2022-11-20T08:46:39.225Z,21.92
2022-11-20T08:50:01.027Z,13.30
2022-11-20T08:53:24.333Z,8.30
2022-11-20T08:56:46.178Z,8.30
2022-11-20T09:00:10.338Z,10.68
2022-11-20T09:03:35.052Z,8.80
2022-11-20T09:06:56.927Z,10.93
2022-11-20T09:10:24.604Z,6.78
2022-11-20T09:13:46.880Z,10.25
2022-11-20T09:17:09.024Z,10.27
2022-11-20T09:20:32.185Z,7.25
2022-11-20T09:23:54.132Z,16.58
2022-11-20T09:27:21.738Z,14.95
2022-11-20T09:30:43.952Z,18.00
2022-11-20T09:34:06.085Z,18.52
2022-11-20T09:37:28.066Z,7.43
2022-11-20T09:40:59.510Z,6.95
2022-11-20T09:44:39.024Z,21.65
2022-11-20T09:48:24.002Z,27.77
2022-11-20T09:51:56.015Z,17.35
2022-11-20T09:55:19.170Z,20.05
2022-11-20T09:58:44.213Z,12.20
2022-11-20T10:02:22.215Z,10.23
2022-11-20T10:05:47.720Z,6.30
2022-11-20T10:09:23.967Z,8.93
2022-11-20T10:13:03.989Z,6.55
2022-11-20T10:16:39.479Z,6.50
2022-11-20T10:20:18.446Z,5.10
2022-11-20T10:24:14.135Z,4.90
2022-11-20T10:27:51.112Z,5.85
2022-11-20T10:31:28.871Z,11.50
2022-11-20T10:34:55.453Z,6.82
2022-11-20T10:38:24.649Z,7.25
2022-11-20T10:41:51.681Z,8.68
2022-11-20T10:45:24.059Z,6.85
2022-11-20T10:48:47.772Z,7.20
2022-11-20T10:52:18.728Z,5.88
2022-11-20T10:55:47.624Z,4.95
2022-11-20T10:59:37.577Z,11.68
2022-11-20T11:03:03.505Z,7.50
2022-11-20T11:06:37.620Z,7.25
2022-11-20T11:09:59.929Z,8.05
2022-11-20T11:13:25.354Z,10.30
2022-11-20T11:16:53.145Z,10.63
2022-11-20T11:20:19.417Z,8.32
2022-11-20T11:23:43.067Z,6.28
2022-11-20T11:27:10.131Z,14.43
2022-11-20T11:30:50.318Z,23.60
2022-11-20T11:34:16.168Z,12.95
2022-11-20T11:37:40.234Z,7.57
2022-11-20T11:41:03.003Z,9.48
2022-11-20T11:44:48.246Z,8.18
2022-11-20T11:48:11.854Z,8.68
2022-11-20T11:51:40.178Z,8.98
2022-11-20T11:55:11.474Z,8.40
2022-11-20T11:58:46.378Z,9.07
2022-11-20T12:02:26.393Z,8.32
2022-11-20T12:05:53.467Z,12.57
2022-11-20T12:09:15.438Z,6.75
2022-11-20T12:12:42.564Z,12.50
2022-11-20T12:16:06.232Z,10.98
2022-11-20T12:19:31.521Z,12.68
2022-11-20T12:23:01.952Z,9.98
2022-11-20T12:26:41.877Z,8.20
2022-11-20T12:30:10.617Z,8.65
2022-11-20T12:33:57.865Z,7.80
2022-11-20T12:37:32.452Z,7.38
2022-11-20T12:41:03.339Z,10.52
2022-11-20T12:44:59.232Z,16.30
2022-11-20T12:48:46.484Z,10.82
2022-11-20T12:52:23.402Z,12.35
2022-11-20T12:55:52.397Z,23.48
2022-11-20T12:59:40.984Z,20.05
2022-11-20T13:03:26.671Z,44.95
2022-11-20T13:06:49.171Z,12.70
2022-11-20T13:10:19.941Z,41.42
2022-11-20T13:13:55.955Z,33.17
2022-11-20T13:17:26.048Z,38.88
2022-11-20T13:20:49.301Z,37.53
2022-11-20T13:24:25.462Z,18.33
2022-11-20T13:27:50.267Z,14.50
2022-11-20T13:31:30.962Z,11.32
2022-11-20T13:34:59.038Z,24.63
2022-11-20T13:38:20.803Z,27.38
2022-11-20T13:41:43.792Z,25.85
2022-11-20T13:45:13.049Z,11.95
2022-11-20T13:48:40.627Z,9.35
2022-11-20T13:52:31.365Z,6.53
2022-11-20T13:56:00.587Z,9.88
2022-11-20T13:59:44.105Z,5.63
2022-11-20T14:03:15.870Z,9.70
2022-11-20T14:06:43.755Z,9.82
2022-11-20T14:10:08.168Z,6.97
2022-11-20T14:13:30.054Z,10.40
2022-11-20T14:16:52.915Z,9.82
2022-11-20T14:20:19.921Z,9.98
2022-11-20T14:23:41.904Z,11.90
2022-11-20T14:27:06.018Z,10.02
2022-11-20T14:30:30.593Z,9.20
2022-11-20T14:33:53.295Z,9.20
2022-11-20T14:37:21.690Z,7.72
2022-11-20T14:40:44.458Z,10.52
2022-11-20T14:44:11.483Z,9.88
2022-11-20T14:47:34.459Z,10.27
2022-11-20T14:50:56.436Z,14.32
2022-11-20T14:54:20.867Z,9.95
2022-11-20T14:57:43.232Z,9.40
2022-11-20T15:01:08.833Z,10.38
2022-11-20T15:04:30.923Z,17.48
2022-11-20T15:07:55.090Z,11.25
2022-11-20T15:11:20.651Z,7.13
2022-11-20T15:14:42.618Z,9.02
2022-11-20T15:18:06.533Z,11.90
2022-11-20T15:21:28.502Z,10.68
2022-11-20T15:24:50.588Z,8.00
2022-11-20T15:28:20.198Z,9.82
2022-11-20T15:31:44.444Z,9.13
2022-11-20T15:35:11.560Z,10.23
2022-11-20T15:38:34.048Z,10.98
2022-11-20T15:41:58.305Z,14.15
2022-11-20T15:45:20.376Z,12.68
2022-11-20T15:48:48.861Z,12.55
2022-11-20T15:52:13.154Z,13.68
2022-11-20T15:55:35.374Z,11.18
2022-11-20T15:58:57.417Z,20.83
2022-11-20T16:02:19.709Z,20.50
2022-11-20T16:05:41.688Z,11.35
2022-11-20T16:09:05.248Z,24.67
2022-11-20T16:12:44.985Z,13.88
2022-11-20T16:16:11.178Z,29.17
2022-11-20T16:19:33.011Z,42.47
2022-11-20T16:22:54.630Z,12.05
2022-11-20T16:26:19.988Z,34.78
2022-11-20T16:29:42.142Z,19.33
2022-11-20T16:33:05.343Z,16.75
2022-11-20T16:36:28.521Z,16.85
2022-11-20T16:39:50.483Z,30.00
2022-11-20T16:43:16.189Z,19.92
2022-11-20T16:46:40.932Z,14.82
2022-11-20T16:50:03.177Z,24.60
2022-11-20T16:53:25.319Z,16.63
2022-11-20T16:56:48.128Z,40.38
2022-11-20T17:00:12.764Z,56.08
2022-11-20T17:03:34.607Z,39.97
2022-11-20T17:06:56.770Z,29.52
2022-11-20T17:10:18.886Z,30.95
2022-11-20T17:13:41.418Z,22.90
2022-11-20T17:17:05.077Z,21.17
2022-11-20T17:20:26.886Z,33.38
2022-11-20T17:23:49.302Z,24.30
2022-11-20T17:27:11.109Z,32.15
2022-11-20T17:30:33.075Z,32.38
2022-11-20T17:33:56.606Z,16.30
2022-11-20T17:37:18.713Z,44.10
2022-11-20T17:40:40.564Z,39.30
2022-11-20T17:44:03.527Z,17.27
2022-11-20T17:47:26.029Z,10.88
2022-11-20T17:50:49.583Z,14.27
2022-11-20T17:54:12.442Z,14.27
2022-11-20T17:57:52.146Z,17.02
2022-11-20T18:01:14.599Z,15.48
2022-11-20T18:04:36.290Z,21.95
2022-11-20T18:07:59.964Z,42.40
2022-11-20T18:11:24.173Z,24.67
2022-11-20T18:14:45.780Z,20.52
2022-11-20T18:18:07.990Z,22.13
2022-11-20T18:21:31.696Z,16.45
2022-11-20T18:24:55.366Z,27.35
2022-11-20T18:28:19.939Z,29.10
2022-11-20T18:31:42.923Z,26.02
2022-11-20T18:35:05.939Z,17.05
2022-11-20T18:38:27.755Z,20.45
2022-11-20T18:42:08.427Z,19.55
2022-11-20T18:45:30.542Z,18.88
2022-11-20T18:48:53.207Z,24.98
2022-11-20T18:52:15.265Z,30.80
2022-11-20T18:55:37.544Z,22.00
2022-11-20T18:59:01.935Z,32.90
2022-11-20T19:02:24.319Z,10.13
2022-11-20T19:05:46.104Z,14.63
2022-11-20T19:09:10.236Z,18.67
2022-11-20T19:12:32.064Z,16.85
2022-11-20T19:15:55.412Z,20.45
2022-11-20T19:19:17.633Z,14.07
2022-11-20T19:22:39.618Z,16.65
2022-11-20T19:26:01.675Z,12.77
2022-11-20T19:29:25.813Z,18.00
2022-11-20T19:32:50.267Z,17.23
2022-11-20T19:36:14.038Z,15.30
2022-11-20T19:39:36.478Z,16.02
2022-11-20T19:42:58.326Z,13.45
2022-11-20T19:46:21.143Z,14.18
2022-11-20T19:49:44.739Z,13.07
2022-11-20T19:53:07.601Z,15.15
2022-11-20T19:56:31.086Z,15.50
2022-11-20T19:59:53.519Z,12.80
2022-11-20T20:03:15.842Z,16.42
2022-11-20T20:06:40.381Z,19.30
2022-11-20T20:10:02.231Z,11.13
2022-11-20T20:13:24.953Z,14.05
2022-11-20T20:16:47.025Z,12.65
2022-11-20T20:20:10.142Z,12.70
2022-11-20T20:23:33.777Z,13.18
2022-11-20T20:26:58.289Z,13.32
2022-11-20T20:30:21.140Z,10.40
2022-11-20T20:33:46.680Z,9.52
2022-11-20T20:37:08.959Z,11.43
2022-11-20T20:40:32.527Z,11.45
2022-11-20T20:44:12.614Z,14.30
2022-11-20T20:47:35.862Z,11.75
2022-11-20T20:50:58.969Z,11.82
2022-11-20T20:54:21.370Z,10.52
2022-11-20T20:57:44.864Z,12.30
2022-11-20T21:01:08.384Z,10.45
2022-11-20T21:04:30.331Z,11.95
2022-11-20T21:08:10.119Z,12.57
2022-11-20T21:11:32.197Z,12.13
2022-11-20T21:14:55.565Z,14.80
2022-11-20T21:18:18.587Z,9.85
2022-11-20T21:22:00.685Z,10.32
2022-11-20T21:25:22.796Z,9.30
2022-11-20T21:28:45.102Z,9.57
2022-11-20T21:32:08.314Z,9.77
2022-11-20T21:35:30.186Z,11.70
2022-11-20T21:38:53.370Z,12.45
2022-11-20T21:42:17.653Z,11.60
2022-11-20T21:45:39.630Z,14.48
2022-11-20T21:49:06.541Z,7.40
2022-11-20T21:52:28.596Z,12.07
2022-11-20T21:55:55.173Z,9.27
2022-11-20T21:59:16.649Z,10.48
2022-11-20T22:02:39.964Z,8.10
2022-11-20T22:06:03.407Z,10.90
2022-11-20T22:09:25.356Z,11.07
2022-11-20T22:12:47.459Z,8.93
2022-11-20T22:16:08.491Z,8.20
2022-11-20T22:19:30.407Z,10.43
2022-11-20T22:22:53.389Z,9.45
2022-11-20T22:26:16.899Z,9.95
2022-11-20T22:29:39.067Z,10.68
2022-11-20T22:33:05.774Z,9.95
2022-11-20T22:39:54.445Z,11.18
2022-11-20T22:43:16.562Z,13.18
2022-11-20T22:46:39.302Z,9.75
2022-11-20T22:50:03.402Z,8.48
2022-11-20T22:53:25.036Z,8.93
2022-11-20T22:56:49.209Z,10.00
2022-11-20T23:00:12.278Z,8.20
2022-11-20T23:03:34.463Z,9.43
2022-11-20T23:06:56.272Z,11.77
2022-11-20T23:10:18.270Z,11.07
2022-11-20T23:13:42.332Z,7.03
2022-11-20T23:17:04.164Z,8.07
2022-11-20T23:20:26.300Z,9.05
2022-11-20T23:23:50.387Z,7.95
2022-11-20T23:27:12.249Z,6.97
2022-11-20T23:30:36.337Z,10.07
2022-11-20T23:33:58.563Z,9.75
2022-11-20T23:37:20.363Z,9.13
2022-11-20T23:40:42.620Z,9.88
2022-11-20T23:44:04.707Z,12.10
2022-11-20T23:47:28.334Z,8.05
2022-11-20T23:50:50.417Z,9.00
2022-11-20T23:54:12.589Z,10.95
2022-11-20T23:57:34.737Z,8.80
